Bernice Lind — WDC8364 — position and weather

sailwx.info

Track history (hours):
 
Tides and Currents Weather Stations Pressure Air Temp Water Temp Dewpoint Dewpoint Depression Visibility Wind Speed Wind Dir Waves Ship Positions

Bernice Lind

Owner: Riverview Equipment Company, LLC, Petaluma, CA. More information available from US FCC via Universal Licensing System and Coast Guard Vessel Documentation Center.

Last reported at 2014-Dec-18 23:27 UTC. Time now 2014-Dec-19 11:59 UTC.
Position N 37°46' W 122°23'.

Length 18 m; draft 2 m.

Type: Towing. MMSI: 367085890.

Date/timePositionNaut miles runAvg speedWind from/ knotsBaromVisibWave heightAir tempDewpointWater temp
2014-Dec-18 23:27N 37°46' W 122°23'4 4.5
2014-Dec-18 22:33N 37°43' W 122°21'7 7.2
2014-Dec-18 21:33N 37°36' W 122°17'6 6.0
2014-Dec-18 20:33N 37°31' W 122°12'0 0.4
2014-Dec-18 19:24N 37°31' W 122°13'0 0.0
2014-Dec-18 18:30N 37°31' W 122°13'0 0.0
2014-Dec-18 17:24N 37°31' W 122°13'0 0.0
2014-Dec-18 16:30N 37°31' W 122°13'0 0.0
2014-Dec-18 15:30N 37°31' W 122°13'0 0.0
2014-Dec-18 14:30N 37°31' W 122°13'0 0.0
2014-Dec-18 13:30N 37°31' W 122°13'0 0.0
2014-Dec-18 12:24N 37°31' W 122°13'0 0.0
2014-Dec-18 11:33N 37°31' W 122°13'3 3.1
2014-Dec-18 10:33N 37°34' W 122°13'4 3.7
2014-Dec-18 09:33N 37°36' W 122°17'3 3.4
2014-Dec-18 08:33N 37°39' W 122°19'3 3.3
2014-Dec-18 07:33N 37°42' W 122°21'3 2.8
2014-Dec-18 06:33N 37°45' W 122°22'3 2.7
2014-Dec-18 05:33N 37°47' W 122°23'4 3.9
2014-Dec-18 04:33N 37°51' W 122°25'3 3.4
2014-Dec-18 03:33N 37°54' W 122°25'4 3.7
2014-Dec-18 02:33N 37°58' W 122°26'4 4.1
2014-Dec-18 01:33N 38°01' W 122°23'6 6.0
2014-Dec-18 00:33N 38°04' W 122°15'  
2014-Dec-10 19:33N 38°03' W 122°11'4 4.3
2014-Dec-10 18:33N 38°04' W 122°16'4 3.6
2014-Dec-10 17:32N 38°02' W 122°20'5 4.7
2014-Dec-10 16:33N 37°59' W 122°25'4 4.2
2014-Dec-10 15:33N 37°55' W 122°27'4 3.9
2014-Dec-10 14:33N 37°52' W 122°24'6 6.0
2014-Dec-10 13:33N 37°46' W 122°23'3 3.4
2014-Dec-10 12:34N 37°49' W 122°25'6 6.4
2014-Dec-10 11:33N 37°56' W 122°25'5 5.2
2014-Dec-10 10:33N 38°01' W 122°24'6 5.6
2014-Dec-10 09:34N 38°03' W 122°18'3 2.0
2014-Dec-10 08:14N 38°05' W 122°15'3 4.0
2014-Dec-10 07:28N 38°03' W 122°18'4 4.0
2014-Dec-10 06:33N 38°01' W 122°22'3 3.3
2014-Dec-10 05:33N 37°59' W 122°25'2 2.1
2014-Dec-10 04:33N 37°57' W 122°27'1 1.3
2014-Dec-10 03:33N 37°56' W 122°27'1 0.6
2014-Dec-10 02:33N 37°55' W 122°27'1 1.4
2014-Dec-10 01:33N 37°54' W 122°27'1 1.1
2014-Dec-10 00:33N 37°53' W 122°26'3 2.6
2014-Dec-09 23:33N 37°51' W 122°24'5 4.6
2014-Dec-09 22:33N 37°46' W 122°23'1 1.1
2014-Dec-09 21:33N 37°45' W 122°22'4 4.2
2014-Dec-09 20:33N 37°42' W 122°20'3 3.4
2014-Dec-09 19:33N 37°39' W 122°16'3 3.1
2014-Dec-09 18:33N 37°37' W 122°13'0 0.4
2014-Dec-09 17:33N 37°38' W 122°13'1 0.9
2014-Dec-09 16:33N 37°37' W 122°14'0 0.3
2014-Dec-09 15:33N 37°38' W 122°14'0 0.0
2014-Dec-09 14:33N 37°38' W 122°14'1 1.1
2014-Dec-09 13:33N 37°39' W 122°15'1 0.7
2014-Dec-09 12:33N 37°38' W 122°14'1 1.2
2014-Dec-09 11:33N 37°37' W 122°13'1 0.9
2014-Dec-09 10:33N 37°38' W 122°14'0 0.5
2014-Dec-09 09:33N 37°38' W 122°14'1 1.3
2014-Dec-09 08:33N 37°38' W 122°13'2 1.5
2014-Dec-09 07:33N 37°38' W 122°14'1 1.0
2014-Dec-09 06:33N 37°38' W 122°13'1 1.2
2014-Dec-09 05:33N 37°37' W 122°15'1 1.4
2014-Dec-09 04:33N 37°38' W 122°13'1 0.5
2014-Dec-09 03:33N 37°38' W 122°14'0 0.3
2014-Dec-09 02:33N 37°38' W 122°14'1 0.7
2014-Dec-09 01:33N 37°38' W 122°13'1 0.6
2014-Dec-09 00:32N 37°37' W 122°14'1 0.6
2014-Dec-08 23:33N 37°38' W 122°13'  
Track history (hours):
 
Tides and Currents Weather Stations Pressure Air Temp Water Temp Dewpoint Dewpoint Depression Visibility Wind Speed Wind Dir Waves Ship Positions

Bernice Lind

Owner: Riverview Equipment Company, LLC, Petaluma, CA. More information available from US FCC via Universal Licensing System and Coast Guard Vessel Documentation Center.

Last reported at 2014-Dec-18 23:27 UTC. Time now 2014-Dec-19 11:59 UTC.
Position N 37°46' W 122°23'.

Length 18 m; draft 2 m.

Type: Towing. MMSI: 367085890.

Date/timePositionNaut miles runAvg speedWind from/ knotsBaromVisibWave heightAir tempDewpointWater temp
2014-Dec-18 23:27N 37°46' W 122°23'4 4.5
2014-Dec-18 22:33N 37°43' W 122°21'7 7.2
2014-Dec-18 21:33N 37°36' W 122°17'6 6.0
2014-Dec-18 20:33N 37°31' W 122°12'0 0.4
2014-Dec-18 19:24N 37°31' W 122°13'0 0.0
2014-Dec-18 18:30N 37°31' W 122°13'0 0.0
2014-Dec-18 17:24N 37°31' W 122°13'0 0.0
2014-Dec-18 16:30N 37°31' W 122°13'0 0.0
2014-Dec-18 15:30N 37°31' W 122°13'0 0.0
2014-Dec-18 14:30N 37°31' W 122°13'0 0.0
2014-Dec-18 13:30N 37°31' W 122°13'0 0.0
2014-Dec-18 12:24N 37°31' W 122°13'0 0.0
2014-Dec-18 11:33N 37°31' W 122°13'3 3.1
2014-Dec-18 10:33N 37°34' W 122°13'4 3.7
2014-Dec-18 09:33N 37°36' W 122°17'3 3.4
2014-Dec-18 08:33N 37°39' W 122°19'3 3.3
2014-Dec-18 07:33N 37°42' W 122°21'3 2.8
2014-Dec-18 06:33N 37°45' W 122°22'3 2.7
2014-Dec-18 05:33N 37°47' W 122°23'4 3.9
2014-Dec-18 04:33N 37°51' W 122°25'3 3.4
2014-Dec-18 03:33N 37°54' W 122°25'4 3.7
2014-Dec-18 02:33N 37°58' W 122°26'4 4.1
2014-Dec-18 01:33N 38°01' W 122°23'6 6.0
2014-Dec-18 00:33N 38°04' W 122°15'  
2014-Dec-10 19:33N 38°03' W 122°11'4 4.3
2014-Dec-10 18:33N 38°04' W 122°16'4 3.6
2014-Dec-10 17:32N 38°02' W 122°20'5 4.7
2014-Dec-10 16:33N 37°59' W 122°25'4 4.2
2014-Dec-10 15:33N 37°55' W 122°27'4 3.9
2014-Dec-10 14:33N 37°52' W 122°24'6 6.0
2014-Dec-10 13:33N 37°46' W 122°23'3 3.4
2014-Dec-10 12:34N 37°49' W 122°25'6 6.4
2014-Dec-10 11:33N 37°56' W 122°25'5 5.2
2014-Dec-10 10:33N 38°01' W 122°24'6 5.6
2014-Dec-10 09:34N 38°03' W 122°18'3 2.0
2014-Dec-10 08:14N 38°05' W 122°15'3 4.0
2014-Dec-10 07:28N 38°03' W 122°18'4 4.0
2014-Dec-10 06:33N 38°01' W 122°22'3 3.3
2014-Dec-10 05:33N 37°59' W 122°25'2 2.1
2014-Dec-10 04:33N 37°57' W 122°27'1 1.3
2014-Dec-10 03:33N 37°56' W 122°27'1 0.6
2014-Dec-10 02:33N 37°55' W 122°27'1 1.4
2014-Dec-10 01:33N 37°54' W 122°27'1 1.1
2014-Dec-10 00:33N 37°53' W 122°26'3 2.6
2014-Dec-09 23:33N 37°51' W 122°24'5 4.6
2014-Dec-09 22:33N 37°46' W 122°23'1 1.1
2014-Dec-09 21:33N 37°45' W 122°22'4 4.2
2014-Dec-09 20:33N 37°42' W 122°20'3 3.4
2014-Dec-09 19:33N 37°39' W 122°16'3 3.1
2014-Dec-09 18:33N 37°37' W 122°13'0 0.4
2014-Dec-09 17:33N 37°38' W 122°13'1 0.9
2014-Dec-09 16:33N 37°37' W 122°14'0 0.3
2014-Dec-09 15:33N 37°38' W 122°14'0 0.0
2014-Dec-09 14:33N 37°38' W 122°14'1 1.1
2014-Dec-09 13:33N 37°39' W 122°15'1 0.7
2014-Dec-09 12:33N 37°38' W 122°14'1 1.2
2014-Dec-09 11:33N 37°37' W 122°13'1 0.9
2014-Dec-09 10:33N 37°38' W 122°14'0 0.5
2014-Dec-09 09:33N 37°38' W 122°14'1 1.3
2014-Dec-09 08:33N 37°38' W 122°13'2 1.5
2014-Dec-09 07:33N 37°38' W 122°14'1 1.0
2014-Dec-09 06:33N 37°38' W 122°13'1 1.2
2014-Dec-09 05:33N 37°37' W 122°15'1 1.4
2014-Dec-09 04:33N 37°38' W 122°13'1 0.5
2014-Dec-09 03:33N 37°38' W 122°14'0 0.3
2014-Dec-09 02:33N 37°38' W 122°14'1 0.7
2014-Dec-09 01:33N 37°38' W 122°13'1 0.6
2014-Dec-09 00:32N 37°37' W 122°14'1 0.6
2014-Dec-08 23:33N 37°38' W 122°13'  

Dump ship's entire track history